Time;durP1;ratioP1;P1;durP2;ratioP2;P2;SDS_P1;SDS_P2;PMS_P1;PMS_P2;Temp;Humidity;BMP_temperature;BMP_pressure;BME280_temperature;BME280_humidity;BME280_pressure;Samples;Min_cycle;Max_cycle;Signal;HPM_P1;HPM_P2
2023/09/22 00:00:35;;;;;;;1.52;0.77;;;17.90;99.90;;;;;;4979870;28;20346;-82
2023/09/22 00:03:01;;;;;;;1.35;0.77;;;17.80;99.90;;;;;;4980218;28;20050;-82
2023/09/22 00:05:26;;;;;;;2.97;0.60;;;17.70;99.90;;;;;;4979120;28;20042;-82
2023/09/22 00:07:52;;;;;;;1.35;0.80;;;17.60;99.90;;;;;;4979753;28;20046;-82
2023/09/22 00:10:17;;;;;;;0.52;0.50;;;17.60;99.90;;;;;;4979098;28;20023;-82
2023/09/22 00:12:44;;;;;;;0.50;0.50;;;17.60;99.90;;;;;;4979538;28;20023;-82
2023/09/22 00:15:10;;;;;;;0.60;0.45;;;17.50;99.90;;;;;;4978753;28;20122;-82
2023/09/22 00:17:35;;;;;;;1.13;0.60;;;17.40;99.90;;;;;;4980338;28;20076;-82
2023/09/22 00:20:02;;;;;;;0.45;0.40;;;17.30;99.90;;;;;;4981510;28;20489;-83
2023/09/22 00:22:27;;;;;;;0.60;0.50;;;17.30;99.90;;;;;;4980740;28;20074;-82
2023/09/22 00:24:53;;;;;;;1.02;0.80;;;17.20;99.90;;;;;;4980356;28;20073;-83
2023/09/22 00:27:19;;;;;;;1.75;0.68;;;17.20;99.90;;;;;;4980395;28;20034;-82
2023/09/22 00:29:44;;;;;;;0.40;0.40;;;17.10;99.90;;;;;;4980956;28;20023;-84
2023/09/22 00:32:11;;;;;;;0.50;0.50;;;17.10;99.90;;;;;;4980501;28;20038;-82
2023/09/22 00:34:38;;;;;;;3.55;0.60;;;17.10;99.90;;;;;;4980100;28;20026;-82
2023/09/22 00:37:03;;;;;;;0.85;0.52;;;17.10;99.90;;;;;;4980232;28;20510;-83
2023/09/22 00:39:29;;;;;;;0.68;0.50;;;17.10;99.90;;;;;;4979241;28;20033;-82
2023/09/22 00:41:55;;;;;;;0.50;0.50;;;17.00;99.90;;;;;;4978389;28;20023;-82
2023/09/22 00:44:20;;;;;;;0.63;0.55;;;17.00;99.90;;;;;;4980463;28;20449;-82
2023/09/22 00:46:46;;;;;;;0.93;0.52;;;17.00;99.90;;;;;;4980098;28;20023;-82
2023/09/22 00:49:12;;;;;;;0.50;0.50;;;16.90;99.90;;;;;;4980811;28;20027;-82
2023/09/22 00:51:38;;;;;;;0.73;0.60;;;17.00;99.90;;;;;;4980643;28;20019;-82
2023/09/22 00:54:04;;;;;;;0.57;0.50;;;16.90;99.90;;;;;;4980109;28;20034;-82
2023/09/22 00:56:31;;;;;;;1.60;0.50;;;16.80;99.90;;;;;;4971843;28;20023;-82
2023/09/22 00:58:56;;;;;;;0.52;0.47;;;16.80;99.90;;;;;;4980276;28;20050;-82
2023/09/22 01:01:23;;;;;;;1.20;0.60;;;16.80;99.90;;;;;;4979708;28;20026;-82
2023/09/22 01:03:51;;;;;;;1.85;0.70;;;16.80;99.90;;;;;;4980494;28;20042;-82
2023/09/22 01:06:19;;;;;;;0.52;0.50;;;16.70;99.90;;;;;;4979357;28;20545;-82
2023/09/22 01:08:45;;;;;;;0.80;0.40;;;16.70;99.90;;;;;;4979628;28;20054;-82
2023/09/22 01:11:11;;;;;;;2.67;0.55;;;16.60;99.90;;;;;;4979594;28;20446;-82
2023/09/22 01:13:37;;;;;;;0.93;0.60;;;16.60;99.90;;;;;;4979702;28;20027;-83
2023/09/22 01:16:03;;;;;;;0.80;0.63;;;16.50;99.90;;;;;;4978749;28;20027;-82
2023/09/22 01:18:29;;;;;;;0.98;0.60;;;16.50;99.90;;;;;;4979555;28;20098;-82
2023/09/22 01:20:58;;;;;;;1.08;0.60;;;16.50;99.90;;;;;;4979171;28;20031;-82
2023/09/22 01:23:23;;;;;;;3.80;0.70;;;16.50;99.90;;;;;;4978805;28;20058;-82
2023/09/22 01:25:50;;;;;;;1.88;0.90;;;16.60;99.90;;;;;;4977697;28;20026;-80
2023/09/22 01:28:15;;;;;;;0.80;0.60;;;16.50;99.90;;;;;;4978064;28;20393;-82
2023/09/22 01:30:42;;;;;;;1.23;0.70;;;16.60;99.90;;;;;;4977945;28;20023;-82
2023/09/22 01:33:08;;;;;;;1.00;0.60;;;16.50;99.90;;;;;;4978178;28;20089;-82
2023/09/22 01:35:35;;;;;;;1.20;0.60;;;16.50;99.90;;;;;;4977850;28;20101;-82
2023/09/22 01:38:15;;;;;;;0.90;0.70;;;16.40;99.90;;;;;;4978050;28;20070;-82
2023/09/22 01:40:41;;;;;;;2.08;0.60;;;16.50;99.90;;;;;;4975102;28;20598;-82
2023/09/22 01:43:07;;;;;;;0.82;0.52;;;16.40;99.90;;;;;;4978008;28;20173;-82
2023/09/22 01:45:33;;;;;;;1.50;0.77;;;16.40;99.90;;;;;;4977525;28;20019;-82
2023/09/22 01:47:59;;;;;;;1.35;1.10;;;16.40;99.90;;;;;;4977961;28;20118;-82
2023/09/22 01:50:25;;;;;;;1.70;0.70;;;16.40;99.90;;;;;;4976959;28;20527;-82
2023/09/22 01:52:52;;;;;;;1.23;0.70;;;16.30;99.90;;;;;;4977815;28;20465;-82
2023/09/22 01:55:18;;;;;;;1.45;0.68;;;16.30;99.90;;;;;;4976606;28;20023;-82
2023/09/22 01:57:48;;;;;;;1.77;0.95;;;16.30;99.90;;;;;;4977746;28;20075;-82
2023/09/22 02:00:13;;;;;;;0.98;0.65;;;16.20;99.90;;;;;;4976494;28;20077;-82
2023/09/22 02:02:42;;;;;;;1.10;0.60;;;16.20;99.90;;;;;;4976504;28;20030;-82
2023/09/22 02:05:09;;;;;;;2.40;0.70;;;16.20;99.90;;;;;;4973965;28;20129;-83
2023/09/22 02:07:35;;;;;;;1.70;0.90;;;16.20;99.90;;;;;;4976511;28;20039;-82
2023/09/22 02:10:00;;;;;;;1.65;0.90;;;16.20;99.90;;;;;;4975420;28;20033;-82
2023/09/22 02:12:26;;;;;;;1.25;0.95;;;16.10;99.90;;;;;;4975506;28;20023;-82
2023/09/22 02:14:51;;;;;;;1.52;0.60;;;16.10;99.90;;;;;;4975348;28;20409;-82
2023/09/22 02:17:17;;;;;;;1.70;0.75;;;16.10;99.90;;;;;;4974996;28;20037;-82
2023/09/22 02:19:43;;;;;;;1.23;0.82;;;16.10;99.90;;;;;;4974378;28;20043;-82
2023/09/22 02:22:08;;;;;;;2.40;1.23;;;16.10;99.90;;;;;;4974157;28;20030;-82
2023/09/22 02:24:34;;;;;;;1.08;0.80;;;16.00;99.90;;;;;;4973323;28;20030;-82
2023/09/22 02:26:59;;;;;;;1.75;0.80;;;16.00;99.90;;;;;;4973095;28;20042;-82
2023/09/22 02:29:25;;;;;;;2.08;1.08;;;15.90;99.90;;;;;;4973530;28;20046;-81
2023/09/22 02:31:50;;;;;;;1.60;0.90;;;16.00;99.90;;;;;;4978023;28;20421;-81
2023/09/22 02:34:20;;;;;;;1.23;0.82;;;15.90;99.90;;;;;;4977101;28;20023;-80
2023/09/22 02:36:49;;;;;;;1.10;0.70;;;15.90;99.90;;;;;;4978195;28;20096;-81
2023/09/22 02:39:18;;;;;;;3.00;0.90;;;15.80;99.90;;;;;;4977471;28;20429;-81
2023/09/22 02:41:44;;;;;;;5.18;1.00;;;15.70;99.90;;;;;;4972994;28;20433;-80
2023/09/22 02:44:11;;;;;;;1.98;1.10;;;15.70;99.90;;;;;;4976888;28;20512;-81
2023/09/22 02:46:36;;;;;;;3.42;1.05;;;15.70;99.90;;;;;;4977018;28;20042;-80
2023/09/22 02:49:02;;;;;;;1.35;0.95;;;15.60;99.90;;;;;;4977479;28;20031;-80
2023/09/22 02:51:28;;;;;;;1.40;0.90;;;15.60;99.90;;;;;;4976746;28;20106;-80
2023/09/22 02:53:54;;;;;;;1.52;0.85;;;15.60;99.90;;;;;;4976894;28;20117;-81
2023/09/22 02:56:20;;;;;;;2.72;1.10;;;15.60;99.90;;;;;;4976616;28;20027;-81
2023/09/22 02:58:46;;;;;;;2.42;0.80;;;15.60;99.90;;;;;;4977326;28;20033;-80
2023/09/22 03:01:14;;;;;;;2.25;0.93;;;15.60;99.90;;;;;;4977674;28;20058;-81
2023/09/22 03:03:42;;;;;;;1.55;0.82;;;15.50;99.90;;;;;;4981564;28;20027;-81
2023/09/22 03:06:12;;;;;;;2.10;1.00;;;15.50;99.90;;;;;;4980440;28;20034;-81
2023/09/22 03:08:38;;;;;;;1.23;0.88;;;15.50;99.90;;;;;;4981252;28;20038;-80
2023/09/22 03:11:04;;;;;;;1.98;1.00;;;15.40;99.90;;;;;;4980453;28;20493;-80
2023/09/22 03:13:30;;;;;;;2.03;0.90;;;15.40;99.90;;;;;;4980679;28;20031;-81
2023/09/22 03:15:56;;;;;;;1.60;0.90;;;15.40;99.90;;;;;;4980049;28;20027;-80
2023/09/22 03:18:23;;;;;;;1.60;0.80;;;15.30;99.90;;;;;;4980450;28;20035;-81
2023/09/22 03:20:48;;;;;;;0.98;0.77;;;15.30;99.90;;;;;;4980179;28;20025;-81
2023/09/22 03:23:14;;;;;;;2.17;1.13;;;15.30;99.90;;;;;;4980324;28;20050;-80
2023/09/22 03:25:40;;;;;;;2.67;0.90;;;15.20;99.90;;;;;;4979424;28;20109;-81
2023/09/22 03:28:06;;;;;;;1.13;0.90;;;15.20;99.90;;;;;;4980241;28;20050;-81
2023/09/22 03:30:31;;;;;;;1.70;0.90;;;15.20;99.90;;;;;;4979671;28;20019;-81
2023/09/22 03:32:58;;;;;;;1.30;0.95;;;15.20;99.90;;;;;;4979731;28;20038;-81
2023/09/22 03:35:25;;;;;;;1.98;1.08;;;15.10;99.90;;;;;;4979009;28;20034;-81
2023/09/22 03:37:52;;;;;;;1.08;0.77;;;15.10;99.90;;;;;;4980300;28;20142;-82
2023/09/22 03:40:24;;;;;;;1.30;0.90;;;15.10;99.90;;;;;;4975270;28;20055;-81
2023/09/22 03:42:50;;;;;;;2.17;1.10;;;15.00;99.90;;;;;;4973938;28;20026;-81
2023/09/22 03:45:15;;;;;;;0.93;0.70;;;15.00;99.90;;;;;;4978375;28;20370;-81
2023/09/22 03:47:41;;;;;;;1.70;0.80;;;15.00;99.90;;;;;;4978901;28;20049;-81
2023/09/22 03:50:07;;;;;;;2.08;1.25;;;14.90;99.90;;;;;;4978665;28;20504;-81
2023/09/22 03:52:34;;;;;;;2.70;1.00;;;14.90;99.90;;;;;;4979137;28;20019;-81
2023/09/22 03:55:00;;;;;;;2.90;0.75;;;14.90;99.90;;;;;;4977800;28;20034;-81
2023/09/22 03:57:26;;;;;;;1.38;0.98;;;14.90;99.90;;;;;;4978308;28;20502;-81
2023/09/22 03:59:52;;;;;;;1.88;0.95;;;14.90;99.90;;;;;;4978569;28;20027;-81
2023/09/22 04:02:17;;;;;;;1.75;0.90;;;14.80;99.90;;;;;;4979968;28;20054;-80
2023/09/22 04:04:42;;;;;;;4.28;1.20;;;14.80;99.90;;;;;;4979104;28;20027;-80
2023/09/22 04:07:09;;;;;;;2.47;1.10;;;14.80;99.90;;;;;;4979499;28;20038;-80
2023/09/22 04:09:36;;;;;;;2.83;1.08;;;14.80;99.90;;;;;;4978155;28;20497;-80
2023/09/22 04:12:02;;;;;;;2.70;1.20;;;14.70;99.90;;;;;;4979317;28;20106;-80
2023/09/22 04:14:27;;;;;;;2.63;0.90;;;14.70;99.90;;;;;;4976263;28;20042;-80
2023/09/22 04:16:53;;;;;;;1.30;0.90;;;14.70;99.90;;;;;;4978882;28;20023;-81
2023/09/22 04:19:18;;;;;;;1.80;0.90;;;14.60;99.90;;;;;;4977153;28;20038;-80
2023/09/22 04:21:46;;;;;;;2.80;1.20;;;14.60;99.90;;;;;;4977949;28;20046;-80
2023/09/22 04:24:12;;;;;;;4.55;1.48;;;14.60;99.90;;;;;;4976984;28;20478;-80
2023/09/22 04:26:42;;;;;;;2.22;1.08;;;14.60;99.90;;;;;;4977979;28;20042;-80
2023/09/22 04:29:11;;;;;;;2.35;1.02;;;14.60;99.90;;;;;;4977546;28;20135;-80
2023/09/22 04:31:37;;;;;;;2.25;1.10;;;14.50;99.90;;;;;;4977650;28;20078;-80
2023/09/22 04:34:03;;;;;;;2.40;1.15;;;14.50;99.90;;;;;;4976657;28;20066;-80
2023/09/22 04:36:30;;;;;;;1.95;1.05;;;14.50;99.90;;;;;;4976819;28;20496;-80
2023/09/22 04:38:56;;;;;;;2.72;1.40;;;14.50;99.90;;;;;;4977247;28;20023;-80
2023/09/22 04:41:22;;;;;;;3.38;1.05;;;14.50;99.90;;;;;;4972601;28;20089;-80
2023/09/22 04:43:48;;;;;;;2.72;1.25;;;14.50;99.90;;;;;;4976665;28;20026;-80
2023/09/22 04:46:15;;;;;;;3.47;1.20;;;14.50;99.90;;;;;;4976090;28;20026;-80
2023/09/22 04:48:41;;;;;;;3.15;1.10;;;14.50;99.90;;;;;;4976774;28;20058;-80
2023/09/22 04:51:06;;;;;;;2.70;1.27;;;14.40;99.90;;;;;;4976455;28;20034;-79
2023/09/22 04:53:32;;;;;;;3.05;1.10;;;14.40;99.90;;;;;;4977183;28;20022;-80
2023/09/22 04:56:06;;;;;;;2.60;1.15;;;14.50;99.90;;;;;;4976049;28;20031;-80
2023/09/22 04:58:32;;;;;;;3.90;1.17;;;14.40;99.90;;;;;;4976913;28;20034;-80
2023/09/22 05:01:01;;;;;;;3.95;1.20;;;14.40;99.90;;;;;;4976282;28;20161;-80
2023/09/22 05:03:28;;;;;;;2.72;1.05;;;14.50;99.90;;;;;;4976821;28;20039;-80
2023/09/22 05:05:53;;;;;;;4.95;1.70;;;14.40;99.90;;;;;;4975405;28;20121;-80
2023/09/22 05:08:19;;;;;;;3.45;1.00;;;14.50;99.90;;;;;;4975877;28;20071;-80
2023/09/22 05:10:48;;;;;;;3.92;1.00;;;14.50;99.90;;;;;;4975594;28;20015;-80
2023/09/22 05:13:18;;;;;;;4.38;1.00;;;14.50;99.90;;;;;;4976025;28;20023;-80
2023/09/22 05:15:43;;;;;;;2.83;1.00;;;14.50;99.90;;;;;;4975241;28;20485;-80
2023/09/22 05:18:13;;;;;;;4.32;1.17;;;14.50;99.90;;;;;;4975933;28;20062;-80
2023/09/22 05:20:40;;;;;;;2.45;1.20;;;14.50;99.90;;;;;;4976426;28;20379;-80
2023/09/22 05:23:06;;;;;;;1.40;0.90;;;14.50;99.90;;;;;;4976025;28;20027;-80
2023/09/22 05:25:32;;;;;;;4.78;1.00;;;14.50;99.90;;;;;;4973925;28;20033;-80
2023/09/22 05:27:58;;;;;;;3.13;1.10;;;14.40;99.90;;;;;;4974934;28;20030;-80
2023/09/22 05:30:23;;;;;;;2.75;1.10;;;14.40;99.90;;;;;;4973796;28;20062;-80
2023/09/22 05:32:49;;;;;;;3.97;1.25;;;14.40;99.90;;;;;;4974451;28;20081;-80
2023/09/22 05:35:15;;;;;;;2.33;1.20;;;14.40;99.90;;;;;;4973817;28;20027;-80
2023/09/22 05:37:42;;;;;;;2.05;1.08;;;14.40;99.90;;;;;;4974510;28;20034;-80
2023/09/22 05:40:12;;;;;;;5.30;1.40;;;14.40;99.90;;;;;;4969940;28;20031;-80
2023/09/22 05:42:38;;;;;;;2.88;1.10;;;14.40;99.90;;;;;;4973981;28;20027;-80
2023/09/22 05:45:04;;;;;;;1.55;0.95;;;14.40;99.90;;;;;;4973381;28;20051;-80
2023/09/22 05:47:30;;;;;;;3.15;1.10;;;14.30;99.90;;;;;;4974430;28;20034;-80
2023/09/22 05:49:56;;;;;;;3.08;1.00;;;14.30;99.90;;;;;;4974014;28;20027;-80
2023/09/22 05:52:21;;;;;;;2.08;1.15;;;14.30;99.90;;;;;;4973913;28;20026;-80
2023/09/22 05:54:47;;;;;;;3.38;1.30;;;14.30;99.90;;;;;;4973020;28;20077;-80
2023/09/22 05:57:13;;;;;;;2.15;1.13;;;14.30;99.90;;;;;;4973465;28;20034;-80
2023/09/22 05:59:39;;;;;;;1.63;1.00;;;14.30;99.90;;;;;;4973280;28;20107;-80
2023/09/22 06:02:05;;;;;;;8.35;1.25;;;14.30;99.90;;;;;;4973828;28;20102;-80
2023/09/22 06:04:32;;;;;;;3.03;1.20;;;14.30;99.90;;;;;;4972014;28;20019;-80
2023/09/22 06:06:58;;;;;;;1.60;1.00;;;14.30;99.90;;;;;;4973290;28;20081;-80
2023/09/22 06:09:24;;;;;;;2.35;1.10;;;14.30;99.90;;;;;;4973398;28;20465;-80
2023/09/22 06:11:49;;;;;;;2.92;1.05;;;14.30;99.90;;;;;;4973408;28;20069;-80
2023/09/22 06:14:15;;;;;;;1.23;0.90;;;14.30;99.90;;;;;;4973333;28;20407;-81
2023/09/22 06:16:41;;;;;;;1.60;1.08;;;14.20;99.90;;;;;;4972406;28;20033;-80
2023/09/22 06:19:10;;;;;;;2.40;0.90;;;14.20;99.90;;;;;;4973110;28;20501;-80
2023/09/22 06:21:38;;;;;;;3.20;1.15;;;14.10;99.90;;;;;;4973420;28;20053;-80
2023/09/22 06:24:06;;;;;;;5.25;1.70;;;14.10;99.90;;;;;;4973255;28;20393;-80
2023/09/22 06:26:32;;;;;;;2.53;1.10;;;14.10;99.90;;;;;;4972979;28;20026;-80
2023/09/22 06:28:57;;;;;;;2.38;1.00;;;14.10;99.90;;;;;;4973407;28;20027;-80
2023/09/22 06:31:23;;;;;;;3.90;1.48;;;14.10;99.90;;;;;;4972766;28;20062;-80
2023/09/22 06:33:49;;;;;;;6.05;1.30;;;14.10;99.90;;;;;;4972407;28;20059;-80
2023/09/22 06:36:15;;;;;;;1.63;1.10;;;14.00;99.90;;;;;;4972372;28;20030;-80
2023/09/22 06:38:41;;;;;;;2.97;0.90;;;14.00;99.90;;;;;;4974019;28;20042;-80
2023/09/22 06:41:06;;;;;;;4.53;1.20;;;14.00;99.90;;;;;;4971260;28;20050;-80
2023/09/22 06:43:33;;;;;;;1.40;1.00;;;14.00;99.90;;;;;;4973234;28;20022;-80
2023/09/22 06:46:03;;;;;;;1.95;1.30;;;14.00;99.90;;;;;;4972861;28;20139;-80
2023/09/22 06:48:29;;;;;;;2.60;1.30;;;13.90;99.90;;;;;;4973525;28;20031;-80
2023/09/22 06:50:57;;;;;;;3.33;1.25;;;13.90;99.90;;;;;;4973447;28;20038;-80
2023/09/22 06:53:27;;;;;;;3.67;1.52;;;13.90;99.90;;;;;;4973098;28;20081;-80
2023/09/22 06:56:07;;;;;;;2.92;1.00;;;13.90;99.90;;;;;;4972601;28;20023;-80
2023/09/22 06:58:34;;;;;;;4.05;1.25;;;13.90;99.90;;;;;;4971400;28;20049;-80
2023/09/22 07:01:07;;;;;;;2.40;1.23;;;13.90;99.90;;;;;;4972915;28;20589;-80
2023/09/22 07:03:33;;;;;;;3.50;1.08;;;13.90;99.90;;;;;;4972532;28;20481;-80
2023/09/22 07:05:59;;;;;;;2.28;1.17;;;13.90;99.90;;;;;;4971830;28;20102;-80
2023/09/22 07:08:25;;;;;;;2.15;1.00;;;13.90;99.90;;;;;;4973295;28;20041;-80
2023/09/22 07:10:54;;;;;;;2.70;1.02;;;13.90;99.90;;;;;;4972658;28;20106;-80
2023/09/22 07:13:19;;;;;;;2.85;1.30;;;13.90;99.90;;;;;;4973071;28;20057;-80
2023/09/22 07:15:45;;;;;;;3.38;1.40;;;13.90;99.90;;;;;;4972222;28;20050;-80
2023/09/22 07:18:11;;;;;;;2.70;1.10;;;13.90;99.90;;;;;;4971867;28;20130;-80
2023/09/22 07:20:37;;;;;;;3.63;1.27;;;13.90;99.90;;;;;;4972737;28;20042;-80
2023/09/22 07:23:03;;;;;;;2.15;1.30;;;13.90;99.90;;;;;;4972960;28;20058;-80
2023/09/22 07:25:28;;;;;;;2.88;1.05;;;13.80;99.90;;;;;;4971904;28;20063;-80
2023/09/22 07:27:54;;;;;;;2.97;1.30;;;13.80;99.90;;;;;;4972148;28;20027;-80
2023/09/22 07:30:20;;;;;;;7.85;1.88;;;13.80;99.90;;;;;;4970757;28;20041;-80
2023/09/22 07:32:47;;;;;;;4.63;1.40;;;13.80;99.90;;;;;;4972117;28;20110;-80
2023/09/22 07:35:13;;;;;;;2.10;1.25;;;13.90;99.90;;;;;;4971854;28;20031;-80
2023/09/22 07:37:39;;;;;;;4.72;1.48;;;13.90;99.90;;;;;;4972897;28;20477;-80
2023/09/22 07:40:08;;;;;;;4.30;1.10;;;13.90;99.90;;;;;;4969186;28;20031;-80
2023/09/22 07:42:34;;;;;;;5.15;2.38;;;13.90;99.90;;;;;;4971953;28;20062;-80
2023/09/22 07:45:00;;;;;;;4.85;1.80;;;13.90;99.90;;;;;;4971757;28;20058;-80
2023/09/22 07:47:25;;;;;;;4.60;1.27;;;13.90;99.90;;;;;;4972281;28;20079;-80
2023/09/22 07:49:54;;;;;;;3.20;1.20;;;14.00;99.90;;;;;;4975425;28;20390;-80
2023/09/22 07:52:20;;;;;;;1.90;1.30;;;13.90;99.90;;;;;;4975773;28;20042;-80
2023/09/22 07:54:45;;;;;;;2.67;1.23;;;14.00;99.90;;;;;;4975196;28;20097;-80
2023/09/22 07:57:13;;;;;;;3.75;1.30;;;14.00;99.90;;;;;;4975980;28;20050;-80
2023/09/22 07:59:38;;;;;;;2.05;1.02;;;14.00;99.90;;;;;;4975474;28;20022;-80
2023/09/22 08:02:05;;;;;;;3.25;1.20;;;14.10;99.90;;;;;;4974888;28;20035;-80
2023/09/22 08:04:30;;;;;;;2.70;1.38;;;14.10;99.90;;;;;;4974525;28;20019;-80
2023/09/22 08:06:58;;;;;;;2.53;1.10;;;14.10;99.90;;;;;;4976095;28;20027;-80
2023/09/22 08:09:24;;;;;;;4.13;1.50;;;14.10;99.90;;;;;;4975402;28;20030;-80
2023/09/22 08:11:50;;;;;;;4.43;1.23;;;14.10;99.90;;;;;;4975622;28;20027;-80
2023/09/22 08:14:15;;;;;;;4.95;1.50;;;14.10;99.90;;;;;;4975172;28;20029;-80
2023/09/22 08:16:41;;;;;;;5.53;1.13;;;14.10;99.90;;;;;;4975797;28;20023;-80
2023/09/22 08:19:10;;;;;;;3.13;1.02;;;14.20;99.90;;;;;;4975738;28;20042;-80
2023/09/22 08:21:37;;;;;;;3.33;1.50;;;14.20;99.90;;;;;;4974368;28;20039;-80
2023/09/22 08:24:04;;;;;;;2.97;1.50;;;14.20;99.90;;;;;;4975216;28;20031;-80
2023/09/22 08:26:31;;;;;;;2.15;1.13;;;14.20;99.90;;;;;;4975677;28;20110;-80
2023/09/22 08:28:57;;;;;;;2.03;0.85;;;14.20;99.90;;;;;;4975790;28;20113;-80
2023/09/22 08:31:25;;;;;;;2.35;1.13;;;14.30;99.90;;;;;;4975556;28;20105;-80
2023/09/22 08:33:51;;;;;;;4.43;1.40;;;14.30;99.90;;;;;;4975472;28;20022;-80
2023/09/22 08:36:16;;;;;;;3.45;1.15;;;14.40;99.90;;;;;;4973743;28;20117;-80
2023/09/22 08:38:42;;;;;;;3.42;1.10;;;14.40;99.90;;;;;;4975002;28;20508;-80
2023/09/22 08:41:08;;;;;;;1.90;0.98;;;14.40;99.90;;;;;;4972136;28;20031;-80
2023/09/22 08:43:35;;;;;;;3.78;1.40;;;14.50;99.90;;;;;;4974691;28;20031;-80
2023/09/22 08:46:01;;;;;;;2.40;1.13;;;14.40;99.90;;;;;;4973510;28;20034;-80
2023/09/22 08:48:27;;;;;;;2.13;1.08;;;14.50;99.90;;;;;;4974582;28;20486;-80
2023/09/22 08:50:54;;;;;;;2.90;1.30;;;14.50;99.90;;;;;;4974585;28;20027;-80
2023/09/22 08:53:19;;;;;;;1.70;1.10;;;14.50;99.90;;;;;;4975138;28;20065;-80
2023/09/22 08:55:45;;;;;;;4.80;1.60;;;14.50;99.90;;;;;;4973297;28;20046;-80
2023/09/22 08:58:11;;;;;;;5.70;1.40;;;14.50;99.90;;;;;;4974344;28;20026;-80
2023/09/22 09:00:36;;;;;;;5.35;1.52;;;14.50;99.90;;;;;;4972486;28;20076;-80
2023/09/22 09:03:09;;;;;;;4.82;1.35;;;14.50;99.90;;;;;;4973031;28;20030;-80
2023/09/22 09:05:36;;;;;;;8.57;1.40;;;14.40;99.90;;;;;;4972131;28;20026;-80
2023/09/22 09:08:11;;;;;;;2.63;1.40;;;14.40;99.90;;;;;;4973488;28;20026;-80
2023/09/22 09:10:37;;;;;;;;;;;14.40;99.90;;;;;;4973356;28;20030;-80
2023/09/22 09:13:03;;;;;;;5.45;1.23;;;14.40;99.90;;;;;;4973309;28;19993;-80
2023/09/22 09:15:53;;;;;;;5.03;1.77;;;14.30;99.90;;;;;;4972698;28;20015;-80
2023/09/22 09:18:20;;;;;;;3.10;1.30;;;14.40;99.90;;;;;;4973593;28;20043;-80
2023/09/22 09:20:47;;;;;;;5.82;1.45;;;14.40;99.90;;;;;;4973180;28;20640;-79
2023/09/22 09:23:17;;;;;;;5.63;1.58;;;14.40;99.90;;;;;;4973437;28;20050;-80
2023/09/22 09:25:47;;;;;;;6.15;1.45;;;14.40;99.90;;;;;;4972792;28;20474;-80
2023/09/22 09:28:14;;;;;;;4.50;1.40;;;14.40;99.90;;;;;;4973329;28;20031;-80
2023/09/22 09:30:52;;;;;;;4.47;1.20;;;14.40;99.90;;;;;;4972635;28;20027;-80
2023/09/22 09:33:22;;;;;;;2.78;1.30;;;14.50;99.90;;;;;;4973298;28;20027;-80
2023/09/22 09:35:48;;;;;;;4.88;1.30;;;14.50;99.90;;;;;;4972282;28;20139;-80
2023/09/22 09:38:14;;;;;;;3.42;1.10;;;14.50;99.90;;;;;;4972867;28;20026;-80
2023/09/22 09:40:40;;;;;;;2.50;1.10;;;14.60;99.90;;;;;;4970507;28;20026;-80
2023/09/22 09:43:10;;;;;;;3.13;1.20;;;14.50;99.90;;;;;;4973334;28;20023;-80
2023/09/22 09:45:44;;;;;;;3.08;1.30;;;14.60;99.90;;;;;;4970535;28;20449;-80
2023/09/22 09:48:16;;;;;;;2.50;1.13;;;14.60;99.90;;;;;;4972658;28;20038;-80
2023/09/22 09:50:45;;;;;;;2.58;1.30;;;14.60;99.90;;;;;;4972782;28;20027;-80
2023/09/22 09:53:18;;;;;;;3.08;1.52;;;14.60;99.90;;;;;;4973066;28;20507;-80
2023/09/22 09:55:45;;;;;;;1.50;1.00;;;14.60;99.90;;;;;;4972038;28;20439;-80
2023/09/22 09:58:11;;;;;;;2.38;1.23;;;14.60;99.90;;;;;;4973372;28;20027;-80
2023/09/22 10:00:39;;;;;;;1.73;1.00;;;14.50;99.90;;;;;;4973560;28;20050;-80
2023/09/22 10:03:07;;;;;;;1.90;1.10;;;14.50;99.90;;;;;;4973470;28;20493;-80
2023/09/22 10:05:33;;;;;;;2.30;1.10;;;14.40;99.90;;;;;;4971586;28;20037;-80
2023/09/22 10:08:00;;;;;;;3.28;1.27;;;14.40;99.90;;;;;;4973806;28;20493;-80
2023/09/22 10:10:27;;;;;;;2.67;1.20;;;14.30;99.90;;;;;;4973379;28;20037;-80
2023/09/22 10:12:53;;;;;;;2.78;1.42;;;14.30;99.90;;;;;;4973952;28;20042;-80
2023/09/22 10:15:50;;;;;;;4.78;1.20;;;14.20;99.90;;;;;;4972768;28;20033;-80
2023/09/22 10:18:17;;;;;;;4.68;1.30;;;14.20;99.90;;;;;;4973900;28;20046;-80
2023/09/22 10:20:45;;;;;;;2.50;0.98;;;14.20;99.90;;;;;;4973692;28;20237;-80
2023/09/22 10:23:25;;;;;;;5.10;1.60;;;14.10;99.90;;;;;;4973668;28;20023;-80
2023/09/22 10:26:20;;;;;;;1.60;1.00;;;14.10;99.90;;;;;;4972602;28;20093;-80
2023/09/22 10:28:45;;;;;;;6.07;1.38;;;14.20;99.90;;;;;;4961206;28;20077;-79
2023/09/22 10:31:11;;;;;;;1.50;0.82;;;14.20;99.90;;;;;;4973120;28;20042;-80
2023/09/22 10:33:37;;;;;;;2.25;1.13;;;14.20;99.90;;;;;;4973506;28;20090;-80
2023/09/22 10:36:07;;;;;;;3.42;1.23;;;14.20;99.90;;;;;;4972813;28;20047;-80
2023/09/22 10:38:53;;;;;;;4.93;1.05;;;14.30;99.90;;;;;;4973448;28;20086;-79
2023/09/22 10:41:19;;;;;;;3.15;1.20;;;14.30;99.90;;;;;;4969045;28;20031;-80
2023/09/22 10:43:58;;;;;;;1.75;1.10;;;14.30;99.90;;;;;;4973864;28;20022;-79
2023/09/22 10:46:24;;;;;;;3.00;1.33;;;14.30;99.90;;;;;;4973249;28;20048;-80
2023/09/22 10:48:49;;;;;;;2.20;1.20;;;14.30;99.90;;;;;;4973661;28;20162;-80
2023/09/22 10:51:15;;;;;;;2.47;1.00;;;14.40;99.90;;;;;;4973281;28;20015;-79
2023/09/22 10:53:40;;;;;;;4.68;1.00;;;14.40;99.90;;;;;;4974066;28;20015;-80
2023/09/22 10:56:06;;;;;;;3.13;1.10;;;14.40;99.90;;;;;;4972778;28;20410;-80
2023/09/22 10:58:32;;;;;;;2.50;1.13;;;14.40;99.90;;;;;;4973028;28;20513;-80
2023/09/22 11:01:04;;;;;;;3.83;1.38;;;14.40;99.90;;;;;;4970291;28;20493;-80
2023/09/22 11:03:32;;;;;;;2.28;1.23;;;14.40;99.90;;;;;;4973471;28;20027;-80
2023/09/22 11:05:59;;;;;;;5.13;1.70;;;14.40;99.90;;;;;;4972084;28;20026;-80
2023/09/22 11:08:25;;;;;;;2.58;1.20;;;14.40;99.90;;;;;;4972717;28;20034;-80
2023/09/22 11:10:53;;;;;;;3.83;1.15;;;14.40;99.90;;;;;;4968028;28;20023;-80
2023/09/22 11:13:21;;;;;;;2.50;1.08;;;14.40;99.90;;;;;;4954839;28;20106;-80
2023/09/22 11:15:57;;;;;;;2.20;1.40;;;14.40;99.90;;;;;;4971439;28;20026;-80
2023/09/22 11:18:25;;;;;;;2.85;1.38;;;14.40;99.90;;;;;;4972261;28;20039;-80
2023/09/22 11:21:05;;;;;;;2.22;1.00;;;14.40;99.90;;;;;;4972142;28;20102;-80
2023/09/22 11:23:35;;;;;;;3.05;1.27;;;14.30;99.90;;;;;;4975232;28;20015;-80
2023/09/22 11:26:08;;;;;;;2.35;1.05;;;14.30;99.90;;;;;;4975037;28;20037;-80
2023/09/22 11:28:35;;;;;;;4.72;1.10;;;14.30;99.90;;;;;;4973841;28;20046;-80
2023/09/22 11:31:20;;;;;;;1.80;0.90;;;14.20;99.90;;;;;;4976120;28;20214;-80
2023/09/22 11:33:58;;;;;;;1.80;1.08;;;14.20;99.90;;;;;;4975604;28;20025;-81
2023/09/22 11:36:24;;;;;;;3.13;0.98;;;14.10;99.90;;;;;;4975656;28;20046;-80
2023/09/22 11:38:54;;;;;;;2.85;1.25;;;14.10;99.90;;;;;;4975983;28;20015;-80
2023/09/22 11:41:23;;;;;;;1.80;1.10;;;14.10;99.90;;;;;;4972884;28;20409;-80
2023/09/22 11:43:50;;;;;;;6.43;1.30;;;14.10;99.90;;;;;;4975064;28;20486;-80
2023/09/22 11:46:26;;;;;;;2.53;1.17;;;14.00;99.90;;;;;;4975250;28;20023;-80
2023/09/22 11:49:05;;;;;;;1.60;1.00;;;14.00;99.90;;;;;;4975871;28;20046;-80
2023/09/22 11:51:40;;;;;;;2.33;1.10;;;14.00;99.90;;;;;;4975037;28;20029;-80
2023/09/22 11:54:10;;;;;;;;;;;14.00;99.90;;;;;;4975456;28;20102;-80
2023/09/22 11:56:36;;;;;;;1.67;0.82;;;14.00;99.90;;;;;;4973007;28;20403;-80
2023/09/22 11:59:13;;;;;;;1.45;1.02;;;14.00;99.90;;;;;;4975787;28;20031;-80
2023/09/22 12:01:39;;;;;;;3.33;1.42;;;14.00;99.90;;;;;;4973431;28;20038;-80
2023/09/22 12:04:06;;;;;;;1.85;1.00;;;13.90;99.90;;;;;;4974814;28;20034;-80
2023/09/22 12:06:32;;;;;;;1.98;1.10;;;13.80;99.90;;;;;;4975639;28;20035;-80
2023/09/22 12:08:58;;;;;;;1.80;0.98;;;13.80;99.90;;;;;;4976424;28;20401;-80
2023/09/22 12:11:24;;;;;;;1.25;0.80;;;13.80;99.90;;;;;;4975367;28;20030;-80
2023/09/22 12:13:50;;;;;;;2.42;1.08;;;13.70;99.90;;;;;;4975387;28;20081;-80
2023/09/22 12:16:15;;;;;;;1.85;1.08;;;13.70;99.90;;;;;;4974263;28;20019;-80
2023/09/22 12:18:41;;;;;;;2.47;1.10;;;13.70;99.90;;;;;;4974843;28;20027;-80
2023/09/22 12:21:06;;;;;;;1.85;1.00;;;13.60;99.90;;;;;;4975093;28;20027;-80
2023/09/22 12:23:33;;;;;;;1.15;0.77;;;13.60;99.90;;;;;;4975118;28;20041;-80
2023/09/22 12:26:02;;;;;;;1.27;0.90;;;13.60;99.90;;;;;;4974042;28;20026;-80
2023/09/22 12:28:28;;;;;;;2.53;1.00;;;13.60;99.90;;;;;;4974693;28;20038;-80
2023/09/22 12:30:54;;;;;;;3.10;0.90;;;13.60;99.90;;;;;;4974452;28;20019;-80
2023/09/22 12:33:20;;;;;;;1.23;0.80;;;13.60;99.90;;;;;;4974170;28;20027;-80
2023/09/22 12:35:50;;;;;;;2.97;1.00;;;13.60;99.90;;;;;;4973829;28;20019;-80
2023/09/22 12:38:16;;;;;;;2.70;1.00;;;13.60;99.90;;;;;;4974789;28;20115;-80
2023/09/22 12:40:42;;;;;;;2.53;1.10;;;13.60;99.90;;;;;;4970699;28;20058;-80
2023/09/22 12:43:08;;;;;;;3.03;1.00;;;13.50;99.90;;;;;;4974148;28;20031;-80
2023/09/22 12:45:33;;;;;;;3.13;1.00;;;13.50;99.90;;;;;;4973038;28;20548;-80
2023/09/22 12:47:59;;;;;;;3.50;1.17;;;13.50;99.90;;;;;;4974021;28;20406;-80